Time;durP1;ratioP1;P1;durP2;ratioP2;P2;SDS_P1;SDS_P2;PMS_P1;PMS_P2;Temp;Humidity;BMP_temperature;BMP_pressure;BME280_temperature;BME280_humidity;BME280_pressure;Samples;Min_cycle;Max_cycle;Signal;HPM_P1;HPM_P2
2022/12/14 00:01:39;;;;;;;20.23;12.93;;;;;;;-3.27;63.28;95395.19;5036738;28;20045;-77
2022/12/14 00:04:07;;;;;;;22.30;13.20;;;;;;;-3.25;63.70;95398.41;5036366;28;20045;-76
2022/12/14 00:06:35;;;;;;;21.05;12.65;;;;;;;-3.22;63.39;95405.00;5036101;28;20053;-77
2022/12/14 00:09:04;;;;;;;20.40;13.68;;;;;;;-3.24;63.72;95399.22;5035623;28;20374;-76
2022/12/14 00:11:32;;;;;;;21.65;12.73;;;;;;;-3.23;63.70;95398.31;5035909;28;20049;-80
2022/12/14 00:14:03;;;;;;;19.05;11.77;;;;;;;-3.21;63.75;95402.34;5035738;28;20061;-79
2022/12/14 00:16:33;;;;;;;19.45;11.63;;;;;;;-3.19;63.99;95397.09;5035241;28;20064;-79
2022/12/14 00:19:01;;;;;;;18.85;12.65;;;;;;;-3.16;63.80;95397.66;5035333;28;20506;-78
2022/12/14 00:21:29;;;;;;;20.42;12.57;;;;;;;-3.15;63.48;95401.00;5035330;28;20075;-79
2022/12/14 00:23:58;;;;;;;18.60;12.02;;;;;;;-3.18;63.83;95393.63;5035406;28;20049;-79
2022/12/14 00:26:28;;;;;;;19.50;11.93;;;;;;;-3.16;63.50;95392.56;5035116;28;20060;-79
2022/12/14 00:28:55;;;;;;;17.63;11.20;;;;;;;-3.13;63.96;95386.38;5035099;28;20052;-78
2022/12/14 00:31:25;;;;;;;17.70;12.80;;;;;;;-3.09;63.84;95387.75;5035201;28;20065;-79
2022/12/14 00:33:54;;;;;;;16.48;11.95;;;;;;;-3.05;64.08;95384.00;5034925;28;20045;-79
2022/12/14 00:36:23;;;;;;;21.30;13.10;;;;;;;-3.01;63.92;95380.28;5035121;28;20045;-78
2022/12/14 00:38:50;;;;;;;24.10;12.45;;;;;;;-2.99;64.16;95373.31;5034897;28;20495;-77
2022/12/14 00:41:19;;;;;;;19.52;12.32;;;;;;;-3.00;63.60;95356.38;5035610;28;20056;-76
2022/12/14 00:43:46;;;;;;;21.02;12.88;;;;;;;-3.02;63.71;95345.47;5034731;28;20415;-76
2022/12/14 00:46:16;;;;;;;21.87;12.67;;;;;;;-2.99;63.88;95368.19;5035258;28;20049;-76
2022/12/14 00:48:45;;;;;;;19.60;12.50;;;;;;;-2.95;63.75;95368.75;5034426;28;20085;-76
2022/12/14 00:51:13;;;;;;;18.70;12.63;;;;;;;-2.97;63.54;95376.53;5035242;28;20053;-76
2022/12/14 00:53:41;;;;;;;20.85;13.98;;;;;;;-2.96;63.61;95373.03;5035433;28;20056;-76
2022/12/14 00:56:10;;;;;;;19.85;13.38;;;;;;;-2.96;63.65;95367.94;5035358;28;20053;-75
2022/12/14 00:58:37;;;;;;;21.83;12.85;;;;;;;-2.97;63.87;95356.13;5035171;28;20049;-77
2022/12/14 01:01:07;;;;;;;22.45;13.75;;;;;;;-2.96;63.72;95355.19;5035151;28;20056;-76
2022/12/14 01:03:35;;;;;;;21.88;13.23;;;;;;;-2.95;63.87;95351.69;5034743;28;20052;-75
2022/12/14 01:06:04;;;;;;;20.08;12.68;;;;;;;-2.94;63.90;95348.19;5034976;28;20049;-76
2022/12/14 01:08:34;;;;;;;22.63;13.40;;;;;;;-2.95;63.74;95341.50;5035348;28;20111;-77
2022/12/14 01:11:05;;;;;;;24.08;12.98;;;;;;;-2.97;63.73;95338.25;5034554;28;20057;-76
2022/12/14 01:13:32;;;;;;;19.23;12.57;;;;;;;-2.97;63.63;95335.72;5034273;28;20045;-77
2022/12/14 01:16:05;;;;;;;22.75;13.40;;;;;;;-3.00;64.16;95335.94;5034656;28;20313;-76
2022/12/14 01:18:34;;;;;;;23.20;12.77;;;;;;;-3.00;63.81;95338.50;5034526;28;20439;-76
2022/12/14 01:21:15;;;;;;;23.33;13.20;;;;;;;-3.03;63.80;95348.19;5034938;28;20054;-76
2022/12/14 01:23:44;;;;;;;20.33;12.38;;;;;;;-3.06;64.02;95341.59;5034447;28;20056;-76
2022/12/14 01:26:12;;;;;;;20.83;13.35;;;;;;;-3.06;63.81;95358.63;5034398;28;20057;-77
2022/12/14 01:28:39;;;;;;;19.77;12.30;;;;;;;-3.09;64.07;95349.50;5034469;28;20068;-76
2022/12/14 01:31:08;;;;;;;20.30;12.60;;;;;;;-3.09;64.20;95362.25;5034603;28;20518;-76
2022/12/14 01:33:36;;;;;;;20.08;12.70;;;;;;;-3.10;63.97;95360.63;5034606;28;20049;-76
2022/12/14 01:36:06;;;;;;;22.73;14.13;;;;;;;-3.15;64.05;95361.03;5034511;28;20052;-77
2022/12/14 01:38:35;;;;;;;19.80;13.07;;;;;;;-3.11;64.26;95356.47;5033704;28;20055;-77
2022/12/14 01:41:04;;;;;;;20.80;13.75;;;;;;;-3.09;64.49;95331.63;5034546;28;20045;-77
2022/12/14 01:43:49;;;;;;;21.35;12.45;;;;;;;-3.11;64.37;95326.66;5055285;22;20050;-76
2022/12/14 01:46:20;;;;;;;23.05;15.13;;;;;;;-3.09;64.49;95349.50;5034252;28;20045;-76
2022/12/14 01:48:50;;;;;;;20.92;13.90;;;;;;;-3.05;64.38;95344.94;5033637;28;20493;-76
2022/12/14 01:51:18;;;;;;;19.33;13.45;;;;;;;-3.02;64.38;95347.22;5033894;28;20053;-76
2022/12/14 01:53:47;;;;;;;20.48;13.40;;;;;;;-3.00;64.29;95345.34;5033628;28;20052;-76
2022/12/14 01:56:16;;;;;;;22.33;14.35;;;;;;;-2.98;64.29;95351.13;5033567;28;20056;-76
2022/12/14 01:58:44;;;;;;;20.88;12.93;;;;;;;-2.95;64.35;95346.59;5038868;28;20067;-77
2022/12/14 02:01:11;;;;;;;20.25;13.48;;;;;;;-2.96;63.93;95337.31;5044046;28;20037;-78
2022/12/14 02:03:44;;;;;;;22.75;14.15;;;;;;;-2.98;64.36;95334.09;5045524;28;20051;-78
2022/12/14 02:06:17;;;;;;;22.55;13.45;;;;;;;-3.04;64.10;95321.88;5057710;28;20045;-77
2022/12/14 02:08:50;;;;;;;19.75;12.77;;;;;;;-3.05;64.48;95317.69;5035707;28;20049;-76
2022/12/14 02:11:27;;;;;;;20.42;14.18;;;;;;;-3.03;64.45;95315.81;5034350;28;20049;-76
2022/12/14 02:13:55;;;;;;;20.90;13.57;;;;;;;-2.97;64.44;95315.31;5033871;28;20055;-76
2022/12/14 02:16:23;;;;;;;21.27;13.93;;;;;;;-2.93;64.58;95293.69;5034326;28;20530;-76
2022/12/14 02:18:50;;;;;;;21.27;14.02;;;;;;;-2.87;64.26;95307.66;5045265;28;20038;-77
2022/12/14 02:21:23;;;;;;;21.88;13.23;;;;;;;-2.86;64.36;95311.00;5056914;28;20378;-77
2022/12/14 02:24:37;;;;;;;20.67;14.05;;;;;;;-2.88;64.41;95308.63;5046864;28;20053;-76
2022/12/14 02:27:15;;;;;;;22.13;14.23;;;;;;;-2.90;64.58;95301.06;5034400;28;20451;-76
2022/12/14 02:29:52;;;;;;;22.30;14.00;;;;;;;-2.90;64.29;95290.88;5033614;28;20054;-75
2022/12/14 02:32:42;;;;;;;24.20;14.98;;;;;;;-2.95;64.25;95266.69;5033664;28;20053;-76
2022/12/14 02:35:17;;;;;;;25.35;15.07;;;;;;;-3.00;64.35;95267.06;5033543;28;20083;-76
2022/12/14 02:37:52;;;;;;;24.43;14.50;;;;;;;-2.99;64.83;95266.16;5033504;28;20423;-76
2022/12/14 02:40:28;;;;;;;25.15;15.25;;;;;;;-2.96;64.52;95270.19;5033290;28;20045;-76
2022/12/14 02:43:06;;;;;;;24.25;14.77;;;;;;;-2.94;64.95;95286.16;5032858;28;20049;-76
2022/12/14 02:45:42;;;;;;;24.42;14.25;;;;;;;-2.92;64.92;95282.53;5033198;28;20419;-76
2022/12/14 02:48:16;;;;;;;24.83;14.85;;;;;;;-2.90;64.60;95275.56;5033059;28;20156;-76
2022/12/14 02:50:53;;;;;;;28.67;16.23;;;;;;;-2.87;65.04;95266.84;5033002;28;20049;-76
2022/12/14 02:53:27;;;;;;;23.48;14.88;;;;;;;-2.82;64.48;95281.75;5032417;28;20049;-76
2022/12/14 02:56:00;;;;;;;27.23;16.35;;;;;;;-2.82;64.40;95276.63;5032942;28;20045;-76
2022/12/14 02:58:33;;;;;;;23.80;15.50;;;;;;;-2.85;64.37;95267.50;5032924;28;20059;-76
2022/12/14 03:01:03;;;;;;;26.50;16.17;;;;;;;-2.87;64.46;95276.25;5033067;28;20419;-76
2022/12/14 03:03:31;;;;;;;25.92;15.63;;;;;;;-2.91;64.36;95273.13;5032687;28;20077;-76
2022/12/14 03:06:00;;;;;;;26.05;16.55;;;;;;;-2.90;64.87;95273.00;5032572;28;20492;-75
2022/12/14 03:08:33;;;;;;;29.83;15.73;;;;;;;-2.91;64.74;95271.41;5032731;28;20499;-76
2022/12/14 03:11:03;;;;;;;24.80;15.55;;;;;;;-2.93;64.65;95263.06;5032742;28;20053;-76
2022/12/14 03:13:36;;;;;;;25.15;15.57;;;;;;;-2.95;64.95;95272.59;5032360;28;20507;-76
2022/12/14 03:16:12;;;;;;;25.33;16.70;;;;;;;-2.93;64.73;95269.91;5040588;28;20082;-77
2022/12/14 03:18:46;;;;;;;25.55;15.95;;;;;;;-2.96;64.68;95265.88;5039451;28;20057;-77
2022/12/14 03:21:18;;;;;;;24.73;15.85;;;;;;;-2.96;64.82;95259.97;5037455;28;20503;-76
2022/12/14 03:23:49;;;;;;;28.33;16.52;;;;;;;-2.96;64.81;95260.78;5032754;28;20049;-77
2022/12/14 03:26:22;;;;;;;22.85;15.52;;;;;;;-2.95;64.91;95272.59;5032431;28;20046;-76
2022/12/14 03:28:53;;;;;;;23.30;15.50;;;;;;;-2.97;65.02;95258.38;5032339;28;20053;-76
2022/12/14 03:31:26;;;;;;;25.77;15.93;;;;;;;-2.99;65.03;95253.41;5032386;28;20045;-76
2022/12/14 03:33:56;;;;;;;24.73;15.15;;;;;;;-3.01;65.28;95262.91;5032642;28;20050;-76
2022/12/14 03:36:28;;;;;;;25.63;15.53;;;;;;;-3.01;65.62;95265.47;5032225;28;20053;-76
2022/12/14 03:39:00;;;;;;;31.00;18.02;;;;;;;-3.02;65.71;95268.94;5040304;28;20050;-76
2022/12/14 03:41:33;;;;;;;27.67;16.20;;;;;;;-3.02;65.95;95266.38;5053084;28;20053;-77
2022/12/14 03:44:13;;;;;;;25.40;17.05;;;;;;;-2.97;66.10;95266.81;5056255;28;20046;-77
2022/12/14 03:46:51;;;;;;;27.40;17.05;;;;;;;-2.93;66.34;95260.53;5035986;28;20068;-76
2022/12/14 03:49:24;;;;;;;27.35;17.15;;;;;;;-2.96;65.80;95259.97;5053859;28;20049;-77
2022/12/14 03:52:00;;;;;;;22.50;15.45;;;;;;;-2.99;66.14;95267.91;5054344;28;20050;-77
2022/12/14 03:54:38;;;;;;;25.50;15.50;;;;;;;-3.01;66.38;95270.56;5039225;28;20046;-76
2022/12/14 03:57:14;;;;;;;26.02;15.63;;;;;;;-3.03;65.96;95272.44;5033472;28;20056;-76
2022/12/14 03:59:52;;;;;;;25.83;16.05;;;;;;;-3.06;66.17;95249.75;5032502;28;20057;-76
2022/12/14 04:02:26;;;;;;;29.05;18.05;;;;;;;-3.10;66.38;95243.31;5032370;28;20424;-76
2022/12/14 04:05:02;;;;;;;25.48;15.75;;;;;;;-3.07;66.62;95237.94;5032181;28;20046;-76
2022/12/14 04:07:37;;;;;;;28.53;16.23;;;;;;;-3.06;66.75;95238.72;5032533;28;20068;-76
2022/12/14 04:18:55;;;;;;;27.23;16.80;;;;;;;-3.04;66.23;95229.19;5032030;28;20502;-75
2022/12/14 04:18:59;;;;;;;25.40;15.20;;;;;;;-2.92;66.39;95202.63;4998841;28;20065;-76
2022/12/14 04:21:36;;;;;;;25.70;16.58;;;;;;;-2.85;66.37;95197.81;5035486;28;20084;-76
2022/12/14 04:27:02;;;;;;;24.75;16.13;;;;;;;-2.78;65.85;95173.34;5036237;28;20049;-76
2022/12/14 04:32:25;;;;;;;30.85;16.52;;;;;;;-2.78;65.81;95161.41;5035700;28;20056;-76
2022/12/14 04:35:01;;;;;;;32.10;17.70;;;;;;;-2.77;65.96;95163.03;5035234;28;20049;-76
2022/12/14 04:37:30;;;;;;;27.52;16.63;;;;;;;-2.74;65.88;95159.38;5035284;28;20049;-76
2022/12/14 04:40:04;;;;;;;26.42;16.65;;;;;;;-2.73;65.74;95154.16;5034900;28;20046;-76
2022/12/14 04:42:35;;;;;;;25.45;16.73;;;;;;;-2.70;65.94;95153.06;5036166;28;20049;-76
2022/12/14 04:45:08;;;;;;;28.90;16.52;;;;;;;-2.68;65.94;95145.28;5035373;28;20052;-77
2022/12/14 04:47:40;;;;;;;25.70;17.10;;;;;;;-2.67;65.44;95147.69;5035089;28;20049;-76
2022/12/14 04:50:12;;;;;;;;;;;;;;;-2.66;65.58;95141.66;5035224;28;20076;-76
2022/12/14 04:52:45;;;;;;;24.20;15.75;;;;;;;-2.69;65.16;95134.25;5035315;28;19921;-76
2022/12/14 04:55:17;;;;;;;;;;;;;;;-2.75;65.49;95122.84;5035949;28;20041;-76
2022/12/14 04:57:50;;;;;;;26.70;16.50;;;;;;;-2.79;65.60;95124.06;5035814;28;19921;-76
2022/12/14 05:00:18;;;;;;;26.38;16.60;;;;;;;-2.83;65.38;95112.53;5034872;28;20518;-76
2022/12/14 05:03:04;;;;;;;24.90;16.52;;;;;;;-2.85;66.09;95124.59;5034597;28;20423;-76
2022/12/14 05:05:38;;;;;;;25.48;16.20;;;;;;;-2.84;65.63;95120.31;5034820;28;20049;-76
2022/12/14 05:08:11;;;;;;;27.13;17.20;;;;;;;-2.87;65.15;95136.69;5034492;28;20057;-76
2022/12/14 05:10:40;;;;;;;;;;;;;;;-2.85;65.89;95134.00;5034979;28;20053;-76
2022/12/14 05:13:14;;;;;;;24.15;16.17;;;;;;;-2.88;65.76;95134.28;5034629;28;19921;-76
2022/12/14 05:15:45;;;;;;;27.55;17.73;;;;;;;-2.91;65.46;95146.38;5035625;28;20099;-77
2022/12/14 05:18:13;;;;;;;27.90;16.80;;;;;;;-2.93;65.48;95140.59;5038347;28;20060;-76
2022/12/14 05:20:42;;;;;;;26.70;16.95;;;;;;;-2.93;65.63;95147.44;5040610;28;20400;-76
2022/12/14 05:23:10;;;;;;;23.63;15.80;;;;;;;-2.97;65.68;95156.31;5039377;28;20050;-77
2022/12/14 05:25:37;;;;;;;26.50;17.30;;;;;;;-2.97;65.94;95156.31;5042807;28;20033;-77
2022/12/14 05:28:05;;;;;;;26.45;16.67;;;;;;;-2.99;65.78;95148.78;5057722;28;20049;-77
2022/12/14 05:30:35;;;;;;;27.00;15.98;;;;;;;-3.00;66.10;95142.06;5054070;28;20049;-78
2022/12/14 05:33:04;;;;;;;25.80;17.05;;;;;;;-3.01;65.96;95140.47;5040011;28;20072;-76
2022/12/14 05:35:31;;;;;;;26.33;16.85;;;;;;;-3.02;66.10;95138.84;5035713;28;20526;-76
2022/12/14 05:38:01;;;;;;;27.02;17.42;;;;;;;-3.05;66.18;95136.56;5034960;28;20144;-76
2022/12/14 05:40:28;;;;;;;27.77;17.65;;;;;;;-3.03;66.18;95129.59;5035052;28;20045;-76
2022/12/14 05:43:04;;;;;;;26.88;16.75;;;;;;;-3.02;66.52;95128.63;5034844;28;20053;-76
2022/12/14 05:45:32;;;;;;;28.45;17.55;;;;;;;-2.99;66.47;95141.13;5045795;28;20060;-76
2022/12/14 05:47:59;;;;;;;28.85;17.02;;;;;;;-2.96;66.43;95128.09;5030453;28;20050;-76
2022/12/14 05:50:27;;;;;;;27.63;16.92;;;;;;;-2.99;66.30;95127.59;5022843;28;20110;-76
2022/12/14 05:52:55;;;;;;;26.10;17.20;;;;;;;-3.00;66.20;95121.66;5025996;28;20120;-76
2022/12/14 05:55:24;;;;;;;27.30;17.17;;;;;;;-2.97;66.45;95130.81;5034716;28;20049;-76
2022/12/14 05:57:52;;;;;;;27.40;17.08;;;;;;;-2.92;66.45;95129.44;5033142;28;20057;-78
2022/12/14 06:00:20;;;;;;;29.25;19.52;;;;;;;-2.88;66.42;95119.00;5038355;28;20046;-78
2022/12/14 06:02:48;;;;;;;28.10;18.52;;;;;;;-2.84;66.30;95120.31;5045441;28;20113;-77
2022/12/14 06:05:16;;;;;;;26.65;17.10;;;;;;;-2.80;66.26;95106.34;5029543;28;20763;-75
2022/12/14 06:07:43;;;;;;;28.08;17.67;;;;;;;-2.80;66.14;95096.94;5024073;28;20053;-77
2022/12/14 06:10:11;;;;;;;28.13;17.60;;;;;;;-2.79;66.41;95098.56;5034533;28;20072;-76
2022/12/14 06:12:40;;;;;;;27.42;18.27;;;;;;;-2.79;66.20;95100.31;5034506;28;20451;-76
2022/12/14 06:15:08;;;;;;;27.35;17.65;;;;;;;-2.77;66.10;95085.66;5026980;28;20043;-75
2022/12/14 06:17:36;;;;;;;24.08;16.42;;;;;;;-2.76;66.10;95088.06;5014221;28;20049;-76
2022/12/14 06:20:05;;;;;;;28.48;19.38;;;;;;;-2.77;65.85;95085.66;5021064;28;20072;-76
2022/12/14 06:22:33;;;;;;;26.92;17.75;;;;;;;-2.80;65.91;95078.25;5028266;28;20514;-75
2022/12/14 06:25:03;;;;;;;28.58;18.13;;;;;;;-2.84;66.12;95082.84;5014606;28;20046;-76
2022/12/14 06:27:30;;;;;;;28.67;18.63;;;;;;;-2.85;66.04;95077.88;5029205;28;20048;-76
2022/12/14 06:30:02;;;;;;;27.35;17.45;;;;;;;-2.87;66.19;95075.44;5037101;28;20076;-76
2022/12/14 06:32:30;;;;;;;30.40;18.02;;;;;;;-2.88;66.12;95060.31;5052765;28;20045;-75
2022/12/14 06:34:58;;;;;;;30.48;18.92;;;;;;;-2.92;66.21;95060.56;5049930;28;20049;-75
2022/12/14 06:37:25;;;;;;;30.08;19.08;;;;;;;-2.95;66.22;95053.19;5018427;28;20579;-75
2022/12/14 06:39:53;;;;;;;30.75;19.05;;;;;;;-2.96;66.41;95050.75;5030070;28;20053;-76
2022/12/14 06:42:23;;;;;;;33.45;20.02;;;;;;;-2.98;66.37;95045.00;5033998;28;20423;-77
2022/12/14 06:44:52;;;;;;;29.67;18.37;;;;;;;-3.01;66.22;95048.63;5025572;28;20241;-75
2022/12/14 06:47:22;;;;;;;32.75;19.65;;;;;;;-3.02;66.33;95043.66;5014110;28;20060;-75
2022/12/14 06:49:50;;;;;;;29.50;17.60;;;;;;;-3.03;66.74;95044.59;5013461;28;20415;-76
2022/12/14 06:52:18;;;;;;;29.05;19.85;;;;;;;-3.02;66.54;95047.00;5013361;28;20050;-76
2022/12/14 06:54:53;;;;;;;30.20;18.83;;;;;;;-3.01;66.54;95051.19;5013474;28;20073;-75
2022/12/14 06:57:20;;;;;;;33.60;19.50;;;;;;;-3.00;66.88;95045.13;5013332;28;20519;-76
2022/12/14 06:59:48;;;;;;;27.48;18.05;;;;;;;-2.99;66.80;95051.84;5011790;28;20057;-75
2022/12/14 07:02:19;;;;;;;30.75;18.38;;;;;;;-3.01;67.02;95042.72;5030431;28;20439;-76
2022/12/14 07:04:49;;;;;;;30.77;18.80;;;;;;;-3.05;66.65;95047.28;5032031;28;20041;-75
2022/12/14 07:07:17;;;;;;;27.65;18.02;;;;;;;-3.11;66.84;95042.72;5029580;28;20073;-75
2022/12/14 07:09:47;;;;;;;30.40;18.83;;;;;;;-3.13;67.44;95034.41;5032219;28;20052;-75
2022/12/14 07:12:15;;;;;;;33.27;19.90;;;;;;;-3.14;67.21;95033.59;5032775;28;20056;-75
2022/12/14 07:14:42;;;;;;;36.60;21.17;;;;;;;-3.12;67.57;95033.47;5032286;28;20049;-76
2022/12/14 07:17:10;;;;;;;34.50;20.38;;;;;;;-3.12;67.71;95030.94;5032310;28;20130;-75
2022/12/14 07:19:37;;;;;;;36.08;22.45;;;;;;;-3.11;67.89;95042.72;5034897;28;20049;-75
2022/12/14 07:22:06;;;;;;;34.05;20.08;;;;;;;-3.08;68.18;95039.09;5047676;28;20085;-79
2022/12/14 07:24:34;;;;;;;34.35;21.13;;;;;;;-3.03;68.37;95039.50;5043099;28;20037;-77
2022/12/14 07:27:02;;;;;;;37.58;21.88;;;;;;;-3.02;68.52;95026.59;5040823;28;20049;-75
2022/12/14 07:29:30;;;;;;;30.88;19.30;;;;;;;-3.01;68.39;95029.97;5039945;28;20041;-76
2022/12/14 07:32:01;;;;;;;33.07;21.23;;;;;;;-3.00;68.59;95023.91;5045372;28;20060;-78
2022/12/14 07:34:29;;;;;;;33.13;20.17;;;;;;;-2.99;68.66;95022.97;5044541;28;20068;-79
2022/12/14 07:36:56;;;;;;;31.65;19.83;;;;;;;-3.01;68.81;95017.22;5051281;28;20041;-75
2022/12/14 07:39:26;;;;;;;36.88;21.05;;;;;;;-3.05;69.14;95014.13;5050055;28;20037;-77
2022/12/14 07:41:55;;;;;;;32.88;20.48;;;;;;;-3.07;68.94;95005.81;5034353;28;20129;-75
2022/12/14 07:44:22;;;;;;;34.08;20.13;;;;;;;-3.09;69.04;95010.22;5057069;22;20049;-74
2022/12/14 07:46:50;;;;;;;35.97;21.83;;;;;;;-3.08;69.06;95021.22;5048402;28;20045;-74
2022/12/14 07:49:17;;;;;;;32.38;20.13;;;;;;;-3.11;69.00;95024.88;5047932;28;20053;-74
2022/12/14 07:51:45;;;;;;;37.20;22.02;;;;;;;-3.12;69.26;95026.63;5041654;28;20049;-74
2022/12/14 07:54:14;;;;;;;34.05;20.48;;;;;;;-3.09;69.68;95020.44;5046704;28;20063;-74
2022/12/14 07:56:43;;;;;;;31.98;20.10;;;;;;;-3.06;69.33;95009.97;5042915;28;20067;-73
2022/12/14 07:59:14;;;;;;;33.72;20.42;;;;;;;-3.03;69.35;95014.78;5051660;28;20095;-73
2022/12/14 08:01:43;;;;;;;33.63;21.33;;;;;;;-3.01;69.27;94999.34;5049945;28;20422;-74
2022/12/14 08:04:12;;;;;;;37.00;21.33;;;;;;;-3.00;69.17;94986.44;5039595;28;20049;-74
2022/12/14 08:06:41;;;;;;;31.15;20.08;;;;;;;-3.00;69.26;94986.44;5047382;28;20045;-74
2022/12/14 08:09:11;;;;;;;36.10;20.60;;;;;;;-3.01;69.07;94981.50;5055000;28;20044;-74
2022/12/14 08:11:39;;;;;;;34.20;19.97;;;;;;;-3.03;69.11;94979.06;5046464;28;20052;-74
2022/12/14 08:14:12;;;;;;;35.53;20.35;;;;;;;-3.03;69.56;94975.72;5046489;28;20048;-75
2022/12/14 08:16:39;;;;;;;;;;;;;;;-2.99;69.92;94980.41;5049606;28;20045;-75
2022/12/14 08:19:07;;;;;;;37.78;21.65;;;;;;;-3.03;69.12;94968.88;5061103;28;19908;-74
2022/12/14 08:21:35;;;;;;;31.80;19.77;;;;;;;-3.05;69.29;94968.22;5058028;28;20136;-74
2022/12/14 08:24:02;;;;;;;33.90;21.27;;;;;;;-3.06;69.51;94976.00;5055306;28;20053;-74
2022/12/14 08:26:30;;;;;;;35.78;20.88;;;;;;;-3.07;69.39;94975.19;5054920;28;20075;-75
2022/12/14 08:29:03;;;;;;;32.72;20.98;;;;;;;-3.11;69.59;94972.09;5054180;28;20134;-73
2022/12/14 08:31:33;;;;;;;37.90;21.20;;;;;;;-3.13;69.79;94966.34;5051821;28;20052;-74
2022/12/14 08:34:01;;;;;;;38.83;23.75;;;;;;;-3.13;69.64;94968.09;5054127;28;20502;-74
2022/12/14 08:36:31;;;;;;;38.22;21.23;;;;;;;-3.15;69.90;94959.75;5043000;28;20055;-74
2022/12/14 08:39:01;;;;;;;38.53;21.15;;;;;;;-3.17;70.06;94959.91;5049204;28;20045;-73
2022/12/14 08:41:29;;;;;;;34.90;20.93;;;;;;;-3.11;70.33;94958.56;5035378;28;20183;-74
2022/12/14 08:43:57;;;;;;;36.60;21.38;;;;;;;-3.06;70.43;94948.75;5041669;28;20053;-74
2022/12/14 08:46:27;;;;;;;38.17;21.98;;;;;;;-3.01;70.29;94936.38;5039485;28;20766;-74
2022/12/14 08:48:57;;;;;;;37.03;21.10;;;;;;;-2.97;70.10;94937.72;5041489;28;20052;-74
2022/12/14 08:51:25;;;;;;;38.30;21.45;;;;;;;-2.93;70.14;94945.88;5053780;28;20533;-75
2022/12/14 08:53:54;;;;;;;37.30;21.13;;;;;;;-2.87;70.19;94954.72;5054026;28;20059;-74
2022/12/14 08:56:24;;;;;;;36.93;21.80;;;;;;;-2.81;69.99;94959.28;5050939;28;20071;-74
2022/12/14 08:58:52;;;;;;;37.95;20.63;;;;;;;-2.79;70.06;94962.50;5053364;28;20517;-73
2022/12/14 09:01:21;;;;;;;41.45;22.67;;;;;;;-2.76;70.14;94970.66;5052861;28;20059;-74
2022/12/14 09:04:04;;;;;;;37.72;21.00;;;;;;;-2.71;70.16;94977.91;5046427;28;20052;-76
2022/12/14 09:06:33;;;;;;;40.65;22.17;;;;;;;-2.66;69.99;94985.16;5046186;28;20055;-77
2022/12/14 09:09:01;;;;;;;41.70;22.05;;;;;;;-2.65;69.89;94974.78;5047404;28;20041;-76
2022/12/14 09:11:29;;;;;;;39.85;21.48;;;;;;;-2.63;69.90;94970.34;5042593;28;20513;-77
2022/12/14 09:13:57;;;;;;;41.15;22.55;;;;;;;-2.65;69.79;94958.69;5052870;28;20057;-76
2022/12/14 09:16:26;;;;;;;43.75;22.73;;;;;;;-2.70;69.86;94946.34;5053327;28;20075;-74
2022/12/14 09:18:54;;;;;;;42.17;22.80;;;;;;;-2.71;70.10;94957.50;5053419;28;20079;-76
2022/12/14 09:21:23;;;;;;;41.78;24.50;;;;;;;-2.66;70.29;94950.22;5048920;28;20049;-76
2022/12/14 09:23:51;;;;;;;37.78;22.50;;;;;;;-2.61;70.22;94942.13;5053487;28;20483;-76
2022/12/14 09:26:26;;;;;;;46.70;24.83;;;;;;;-2.57;70.29;94957.03;5052488;28;20103;-76
2022/12/14 09:28:56;;;;;;;44.35;25.48;;;;;;;-2.53;70.35;94955.81;5048097;28;20573;-76
2022/12/14 09:31:26;;;;;;;38.80;22.85;;;;;;;-2.46;70.42;94956.03;5042471;28;20549;-76
2022/12/14 09:33:55;;;;;;;49.70;23.35;;;;;;;-2.40;70.26;94944.47;5051551;28;20072;-75
2022/12/14 09:36:28;;;;;;;42.88;23.65;;;;;;;-2.40;70.49;94941.91;5053363;28;20049;-76
2022/12/14 09:38:56;;;;;;;43.85;24.77;;;;;;;-2.37;70.42;94951.81;5049433;28;20049;-75
2022/12/14 09:41:35;;;;;;;39.00;22.98;;;;;;;-2.33;70.61;94945.50;5045237;28;20262;-76
2022/12/14 09:44:07;;;;;;;40.85;23.00;;;;;;;-2.29;70.36;94951.94;5051245;28;20048;-76
2022/12/14 09:46:56;;;;;;;47.15;24.80;;;;;;;-2.24;70.71;94943.84;5042993;28;20052;-78
2022/12/14 09:49:27;;;;;;;39.42;22.80;;;;;;;-2.19;70.48;94931.41;5041125;28;20049;-74
2022/12/14 09:52:00;;;;;;;43.90;24.70;;;;;;;-2.18;70.40;94928.72;5053527;28;20063;-74
2022/12/14 09:54:31;;;;;;;40.20;21.75;;;;;;;-2.14;70.24;94929.25;5049897;28;20291;-74
2022/12/14 09:57:04;;;;;;;40.38;23.42;;;;;;;-2.12;70.12;94927.34;5042941;28;20507;-77
2022/12/14 09:59:32;;;;;;;;;;;;;;;-2.10;70.32;94915.22;5045840;28;20406;-78
2022/12/14 10:02:25;;;;;;;40.33;22.48;;;;;;;-2.08;70.51;94914.16;5051662;28;20387;-77
2022/12/14 10:05:23;;;;;;;42.97;24.35;;;;;;;-2.04;70.04;94903.63;5043469;28;20251;-77
2022/12/14 10:08:01;;;;;;;38.00;21.03;;;;;;;-2.01;70.13;94893.09;5046166;28;20044;-77
2022/12/14 10:10:40;;;;;;;41.25;22.63;;;;;;;-2.01;70.17;94885.44;5050036;28;20790;-77
2022/12/14 10:13:19;;;;;;;38.72;21.23;;;;;;;-1.99;70.08;94883.53;5033021;28;20042;-78
2022/12/14 10:15:56;;;;;;;40.38;22.42;;;;;;;-1.98;70.30;94890.28;5051436;28;20083;-78
2022/12/14 10:18:57;;;;;;;39.42;22.83;;;;;;;-1.97;70.61;94876.53;5047538;28;20052;-78
2022/12/14 10:21:41;;;;;;;38.92;22.10;;;;;;;-1.94;70.33;94878.81;5049358;28;20063;-77
2022/12/14 10:24:17;;;;;;;41.33;23.15;;;;;;;-1.91;70.52;94879.31;5052004;28;20419;-75
2022/12/14 10:26:50;;;;;;;44.45;24.30;;;;;;;-1.89;70.69;94876.59;5051963;28;20052;-75
2022/12/14 10:29:21;;;;;;;;;;;;;;;-1.81;71.11;94879.25;5039332;28;20045;-75
2022/12/14 10:31:58;;;;;;;38.85;20.48;;;;;;;-1.79;70.72;94871.41;5038433;28;19920;-75
2022/12/14 10:34:29;;;;;;;39.40;22.00;;;;;;;-1.80;70.52;94878.28;5047522;28;20105;-78
2022/12/14 10:37:09;;;;;;;40.60;22.90;;;;;;;-1.79;71.15;94874.78;5037680;28;20060;-78
2022/12/14 10:39:46;;;;;;;42.55;22.90;;;;;;;-1.76;71.18;94873.69;5050894;28;20054;-78
2022/12/14 10:42:22;;;;;;;40.53;24.55;;;;;;;-1.75;71.21;94873.53;5050804;28;20076;-78
2022/12/14 10:45:00;;;;;;;39.88;21.63;;;;;;;-1.73;71.40;94870.81;5046283;28;20057;-77
2022/12/14 10:47:52;;;;;;;38.95;24.77;;;;;;;-1.71;71.34;94874.03;5032171;28;20111;-78
2022/12/14 10:50:29;;;;;;;39.33;22.85;;;;;;;-1.71;71.50;94876.59;5044201;28;20060;-77
2022/12/14 10:52:58;;;;;;;39.45;23.65;;;;;;;-1.72;71.22;94875.00;5048265;28;20049;-77
2022/12/14 10:55:30;;;;;;;41.67;23.60;;;;;;;-1.72;71.52;94877.56;5045944;28;20045;-78
2022/12/14 10:57:58;;;;;;;39.67;22.17;;;;;;;-1.68;71.49;94884.78;5042784;28;20055;-79
2022/12/14 11:00:26;;;;;;;37.20;23.70;;;;;;;-1.62;71.70;94885.13;5051753;28;20060;-78
2022/12/14 11:02:55;;;;;;;34.83;21.85;;;;;;;-1.59;71.76;94882.28;5050232;28;20060;-79
2022/12/14 11:05:33;;;;;;;36.67;21.50;;;;;;;-1.57;72.18;94880.38;5054253;28;20652;-79
2022/12/14 11:08:05;;;;;;;35.22;21.45;;;;;;;-1.53;71.58;94866.31;5055872;28;20068;-79
2022/12/14 11:10:38;;;;;;;35.47;21.83;;;;;;;-1.51;71.92;94866.97;5048958;28;20363;-79
2022/12/14 11:13:14;;;;;;;34.55;20.77;;;;;;;-1.51;71.90;94862.69;5041997;28;20102;-79
2022/12/14 11:15:44;;;;;;;36.05;21.50;;;;;;;-1.50;71.85;94858.38;5028787;28;20053;-78
2022/12/14 11:18:26;;;;;;;33.75;21.05;;;;;;;-1.50;72.42;94845.56;5036752;28;20045;-78
2022/12/14 11:20:56;;;;;;;34.33;22.63;;;;;;;-1.49;71.91;94844.59;5045670;28;20477;-78
2022/12/14 11:23:26;;;;;;;32.03;21.00;;;;;;;-1.48;71.89;94843.69;5043400;28;20060;-78
2022/12/14 11:25:59;;;;;;;32.92;20.52;;;;;;;-1.49;72.45;94836.94;5049948;28;20057;-77
2022/12/14 11:28:33;;;;;;;34.63;20.33;;;;;;;-1.49;72.00;94836.94;5050096;28;20053;-77
2022/12/14 11:31:07;;;;;;;32.28;20.90;;;;;;;-1.46;72.22;94827.22;5050848;28;20053;-79
2022/12/14 11:33:45;;;;;;;33.85;20.70;;;;;;;-1.43;72.63;94820.19;5049508;28;20052;-80
2022/12/14 11:36:24;;;;;;;35.53;22.43;;;;;;;-1.40;72.29;94825.81;5055970;28;20469;-79
2022/12/14 11:38:56;;;;;;;37.33;22.23;;;;;;;-1.37;72.14;94825.50;5053556;28;20045;-80
2022/12/14 11:41:29;;;;;;;37.87;22.37;;;;;;;-1.34;72.23;94825.19;5043443;28;20473;-80
2022/12/14 11:44:05;;;;;;;38.33;21.42;;;;;;;-1.31;72.16;94830.03;5035793;28;20290;-79
2022/12/14 11:46:45;;;;;;;36.85;23.27;;;;;;;-1.32;72.39;94828.41;5045969;28;20510;-79
2022/12/14 11:49:26;;;;;;;33.55;22.30;;;;;;;-1.32;72.41;94827.63;5056385;28;20091;-79
2022/12/14 11:51:55;;;;;;;36.45;22.25;;;;;;;-1.34;72.09;94825.19;5042696;28;20053;-79